Time;durP1;ratioP1;P1;durP2;ratioP2;P2;SDS_P1;SDS_P2;PMS_P1;PMS_P2;Temp;Humidity;BMP_temperature;BMP_pressure;BME280_temperature;BME280_humidity;BME280_pressure;Samples;Min_cycle;Max_cycle;Signal;HPM_P1;HPM_P2
2023/01/23 00:01:29;;;;;;;20.27;8.27;;;;;;;8.47;100.00;102310.22;5027365;28;20045;-45
2023/01/23 00:03:56;;;;;;;15.90;8.27;;;;;;;8.48;100.00;102305.53;5010435;28;20064;-42
2023/01/23 00:06:24;;;;;;;11.68;7.80;;;;;;;8.47;100.00;102303.91;5028285;28;20081;-43
2023/01/23 00:08:51;;;;;;;12.57;6.80;;;;;;;8.48;100.00;102305.53;5028810;28;20096;-42
2023/01/23 00:11:23;;;;;;;11.68;7.22;;;;;;;8.46;100.00;102307.78;5023044;28;20464;-43
2023/01/23 00:13:50;;;;;;;;;;;;;;;8.46;100.00;102313.28;5028182;28;20049;-42
2023/01/23 00:16:21;;;;;;;10.93;5.32;;;;;;;8.48;100.00;102311.06;5027872;28;20562;-42
2023/01/23 00:18:49;;;;;;;8.27;5.28;;;;;;;8.48;100.00;102308.28;5027923;28;20488;-42
2023/01/23 00:21:19;;;;;;;9.48;6.00;;;;;;;8.49;100.00;102304.44;5027892;28;20084;-42
2023/01/23 00:23:48;;;;;;;11.18;4.85;;;;;;;8.49;100.00;102298.91;5027754;28;20124;-43
2023/01/23 00:26:18;;;;;;;8.45;4.63;;;;;;;8.51;100.00;102313.22;5022025;28;20484;-42
2023/01/23 00:28:46;;;;;;;9.68;5.45;;;;;;;8.49;100.00;102318.22;5025974;28;20077;-41
2023/01/23 00:31:16;;;;;;;9.75;5.95;;;;;;;8.49;100.00;102323.75;5010016;28;20057;-42
2023/01/23 00:33:43;;;;;;;9.82;5.40;;;;;;;8.50;100.00;102317.91;5027456;28;20080;-43
2023/01/23 00:36:12;;;;;;;9.07;5.03;;;;;;;8.52;100.00;102320.41;5027622;28;20085;-48
2023/01/23 00:38:39;;;;;;;8.98;5.10;;;;;;;8.53;100.00;102319.28;5028608;28;20530;-46
2023/01/23 00:41:06;;;;;;;6.28;4.20;;;;;;;8.51;100.00;102319.59;5027439;28;20052;-42
2023/01/23 00:43:33;;;;;;;7.57;4.40;;;;;;;8.52;100.00;102332.25;5020584;28;20488;-44
2023/01/23 00:46:00;;;;;;;5.65;4.50;;;;;;;8.53;100.00;102330.31;5027348;28;20052;-42
2023/01/23 00:48:27;;;;;;;6.13;3.70;;;;;;;8.52;100.00;102329.50;5009678;28;20099;-42
2023/01/23 00:50:53;;;;;;;4.47;3.58;;;;;;;8.52;100.00;102323.97;5027349;28;20053;-43
2023/01/23 00:53:20;;;;;;;5.78;3.40;;;;;;;8.54;100.00;102331.97;5027361;28;20045;-43
2023/01/23 00:55:47;;;;;;;3.80;2.50;;;;;;;8.53;100.00;102342.19;5026851;28;20073;-42
2023/01/23 00:58:14;;;;;;;6.50;2.45;;;;;;;8.53;100.00;102336.66;5025521;28;20351;-43
2023/01/23 01:00:40;;;;;;;2.30;2.00;;;;;;;8.55;100.00;102336.38;5008275;28;20124;-43
2023/01/23 01:03:08;;;;;;;41.20;5.00;;;;;;;8.54;100.00;102337.50;5020950;28;20045;-42
2023/01/23 01:05:35;;;;;;;9.48;4.60;;;;;;;8.53;100.00;102330.31;5027664;28;20037;-43
2023/01/23 01:08:02;;;;;;;7.32;3.75;;;;;;;8.52;100.00;102339.72;5036413;28;20159;-42
2023/01/23 01:10:30;;;;;;;6.10;4.22;;;;;;;8.51;100.00;102347.19;5033685;28;20041;-43
2023/01/23 01:12:58;;;;;;;5.55;2.13;;;;;;;8.51;100.00;102341.66;5033873;28;20037;-43
2023/01/23 01:15:26;;;;;;;4.80;2.97;;;;;;;8.52;100.00;102350.78;5033177;28;20144;-43
2023/01/23 01:17:53;;;;;;;3.72;1.88;;;;;;;8.51;100.00;102338.06;5016522;28;20051;-42
2023/01/23 01:20:22;;;;;;;5.95;2.10;;;;;;;8.51;100.00;102338.91;5033129;28;20109;-42
2023/01/23 01:22:49;;;;;;;3.28;2.03;;;;;;;8.51;100.00;102360.16;5033649;28;20048;-43
2023/01/23 01:25:16;;;;;;;4.32;2.08;;;;;;;8.50;100.00;102355.75;5033751;28;20538;-43
2023/01/23 01:27:44;;;;;;;6.53;2.08;;;;;;;8.51;100.00;102357.41;5033509;28;20143;-43
2023/01/23 01:30:11;;;;;;;6.30;1.90;;;;;;;8.50;100.00;102355.75;5033648;28;20049;-43
2023/01/23 01:32:40;;;;;;;7.28;1.98;;;;;;;8.51;100.00;102354.63;5033175;28;20103;-42
2023/01/23 01:35:08;;;;;;;3.15;2.15;;;;;;;8.51;100.00;102358.22;5033640;28;20041;-42
2023/01/23 01:37:36;;;;;;;4.75;2.28;;;;;;;8.51;100.00;102361.00;5042181;28;20398;-47
2023/01/23 01:40:05;;;;;;;7.72;2.08;;;;;;;8.51;100.00;102361.00;5035021;28;20053;-42
2023/01/23 01:42:48;;;;;;;6.28;1.98;;;;;;;8.50;100.00;102356.56;5033524;28;20056;-42
2023/01/23 01:45:52;;;;;;;5.10;1.65;;;;;;;8.50;100.00;102359.31;5021731;28;20049;-42
2023/01/23 01:48:23;;;;;;;3.60;2.10;;;;;;;8.50;100.00;102359.31;5033556;28;20057;-42
2023/01/23 01:50:50;;;;;;;5.43;2.42;;;;;;;8.51;100.00;102371.19;5033133;28;20060;-42
2023/01/23 01:53:18;;;;;;;11.55;3.03;;;;;;;8.51;100.00;102371.19;5028199;28;20103;-43
2023/01/23 01:55:45;;;;;;;8.48;2.42;;;;;;;8.51;100.00;102372.03;5033153;28;20063;-47
2023/01/23 01:58:12;;;;;;;8.02;2.50;;;;;;;8.50;100.00;102375.88;5015380;28;20049;-42
2023/01/23 02:00:39;;;;;;;8.00;4.13;;;;;;;8.50;100.00;102378.66;5032788;28;20049;-47
2023/01/23 02:03:07;;;;;;;9.30;3.22;;;;;;;8.52;100.00;102378.38;5033315;28;20641;-46
2023/01/23 02:05:38;;;;;;;12.43;3.15;;;;;;;8.51;100.00;102376.72;5033037;28;20172;-45
2023/01/23 02:08:15;;;;;;;8.63;3.10;;;;;;;8.50;100.00;102384.16;5044484;28;20139;-43
2023/01/23 02:10:44;;;;;;;12.68;4.07;;;;;;;8.50;100.00;102375.06;5018347;28;20045;-43
2023/01/23 02:13:32;;;;;;;5.45;2.15;;;;;;;8.51;100.00;102376.72;5032809;28;20049;-42
2023/01/23 02:16:02;;;;;;;9.63;2.70;;;;;;;8.50;100.00;102380.59;5015725;28;20056;-43
2023/01/23 02:18:31;;;;;;;5.30;3.00;;;;;;;8.50;100.00;102380.59;5029813;28;20425;-43
2023/01/23 02:21:02;;;;;;;10.27;2.72;;;;;;;8.49;100.00;102381.72;5030303;28;20057;-42
2023/01/23 02:23:29;;;;;;;5.78;2.70;;;;;;;8.49;100.00;102378.97;5027716;28;20049;-43
2023/01/23 02:25:59;;;;;;;6.80;2.88;;;;;;;8.47;100.00;102375.66;5016908;28;20214;-43
2023/01/23 02:28:37;;;;;;;6.22;3.08;;;;;;;8.48;100.00;102375.38;5030231;28;20152;-43
2023/01/23 02:31:04;;;;;;;7.20;3.10;;;;;;;8.50;100.00;102380.59;5030290;28;20054;-49
2023/01/23 02:33:31;;;;;;;7.70;3.80;;;;;;;8.49;100.00;102373.44;5029836;28;20403;-42
2023/01/23 02:35:59;;;;;;;6.40;2.60;;;;;;;8.49;100.00;102381.72;5030090;28;20053;-42
2023/01/23 02:38:31;;;;;;;8.23;4.00;;;;;;;8.49;100.00;102378.97;5038673;28;20113;-42
2023/01/23 02:41:01;;;;;;;7.13;2.65;;;;;;;8.50;100.00;102375.06;5029786;28;20056;-43
2023/01/23 02:43:34;;;;;;;7.10;3.28;;;;;;;8.49;100.00;102373.44;5017151;28;20091;-44
2023/01/23 02:46:06;;;;;;;9.57;3.08;;;;;;;8.49;100.00;102371.50;5029856;28;20046;-43
2023/01/23 02:48:33;;;;;;;7.78;2.65;;;;;;;8.50;100.00;102361.25;5029915;28;20454;-44
2023/01/23 02:51:00;;;;;;;10.10;2.50;;;;;;;8.50;100.00;102369.53;5029531;28;20054;-42
2023/01/23 02:53:26;;;;;;;4.32;2.65;;;;;;;8.51;100.00;102365.69;5029487;28;20056;-42
2023/01/23 02:55:53;;;;;;;4.53;2.42;;;;;;;8.51;100.00;102361.00;5029249;28;20045;-42
2023/01/23 03:01:05;;;;;;;3.70;2.22;;;;;;;8.53;100.00;102352.41;5050300;22;20506;-45
2023/01/23 03:03:32;;;;;;;3.45;2.55;;;;;;;8.54;100.00;102354.06;5049369;28;20041;-42
2023/01/23 03:06:02;;;;;;;5.32;2.10;;;;;;;8.53;100.00;102353.22;5049118;28;20081;-42
2023/01/23 03:08:34;;;;;;;2.22;1.70;;;;;;;8.54;100.00;102349.38;5050987;28;20563;-42
2023/01/23 03:11:03;;;;;;;10.05;3.40;;;;;;;8.55;100.00;102352.94;5041989;28;20053;-43
2023/01/23 03:13:30;;;;;;;3.60;2.13;;;;;;;8.54;100.00;102343.84;5049255;28;20087;-42
2023/01/23 03:15:57;;;;;;;7.85;2.55;;;;;;;8.53;100.00;102336.66;5049052;28;20083;-42
2023/01/23 03:18:26;;;;;;;6.70;2.97;;;;;;;8.54;100.00;102351.28;5048947;28;20056;-42
2023/01/23 03:20:53;;;;;;;4.38;2.67;;;;;;;8.53;100.00;102341.34;5048672;28;20040;-42
2023/01/23 03:23:19;;;;;;;10.20;3.35;;;;;;;8.53;100.00;102338.59;5048880;28;20056;-42
2023/01/23 03:25:47;;;;;;;11.77;3.70;;;;;;;8.51;100.00;102338.06;5048577;28;20441;-43
2023/01/23 03:30:59;;;;;;;6.70;3.08;;;;;;;8.50;100.00;102342.75;5047729;28;20105;-42
2023/01/23 03:33:26;;;;;;;5.60;3.10;;;;;;;8.50;100.00;102341.94;5042759;28;20045;-42
2023/01/23 03:35:53;;;;;;;6.10;2.67;;;;;;;8.50;100.00;102348.28;5048507;28;20080;-43
2023/01/23 03:38:20;;;;;;;7.75;2.75;;;;;;;8.52;100.00;102359.06;5058342;28;20049;-42
2023/01/23 03:43:34;;;;;;;7.32;3.42;;;;;;;8.52;100.00;102357.09;5048145;28;20041;-42
2023/01/23 03:46:01;;;;;;;9.45;3.83;;;;;;;8.54;100.00;102351.28;5047963;28;20398;-42
2023/01/23 03:48:27;;;;;;;7.05;3.47;;;;;;;8.54;100.00;102365.94;5048613;28;20045;-42
2023/01/23 03:50:54;;;;;;;8.15;3.50;;;;;;;8.55;100.00;102366.75;5030536;28;20053;-42
2023/01/23 03:53:22;;;;;;;5.93;3.42;;;;;;;8.55;100.00;102370.31;5048648;28;20437;-42
2023/01/23 03:55:48;;;;;;;8.55;4.07;;;;;;;8.55;100.00;102358.47;5048031;28;20148;-42
2023/01/23 03:58:15;;;;;;;9.30;3.60;;;;;;;8.55;100.00;102361.22;5037636;28;20040;-43
2023/01/23 04:00:42;;;;;;;14.85;3.95;;;;;;;8.55;100.00;102358.47;5047287;28;20063;-43
2023/01/23 04:03:09;;;;;;;9.43;3.58;;;;;;;8.55;100.00;102369.53;5048123;28;20045;-43
2023/01/23 04:05:35;;;;;;;6.72;3.42;;;;;;;8.56;100.00;102360.09;5047905;28;20086;-42
2023/01/23 04:08:02;;;;;;;6.55;2.58;;;;;;;8.55;100.00;102359.28;5049620;28;20049;-43
2023/01/23 04:10:29;;;;;;;5.40;2.70;;;;;;;8.55;100.00;102364.00;5047821;28;20045;-46
2023/01/23 04:12:58;;;;;;;8.57;2.88;;;;;;;8.55;100.00;102361.22;5030744;28;20053;-43
2023/01/23 04:15:25;;;;;;;6.20;2.83;;;;;;;8.55;100.00;102372.28;5047745;28;20051;-42
2023/01/23 04:17:52;;;;;;;9.00;2.58;;;;;;;8.56;100.00;102371.16;5047669;28;20057;-42
2023/01/23 04:20:18;;;;;;;2.95;1.83;;;;;;;8.56;100.00;102371.16;5047618;28;20369;-42
2023/01/23 04:22:45;;;;;;;5.32;2.28;;;;;;;8.55;100.00;102358.47;5048031;28;20044;-41
2023/01/23 04:25:12;;;;;;;7.55;2.60;;;;;;;8.56;100.00;102363.69;5047581;28;20060;-42
2023/01/23 04:27:40;;;;;;;5.28;2.10;;;;;;;8.54;100.00;102359.56;5042458;28;20124;-42
2023/01/23 04:30:08;;;;;;;9.18;2.40;;;;;;;8.55;100.00;102355.72;5049133;28;20036;-42
2023/01/23 04:32:34;;;;;;;5.03;2.33;;;;;;;8.54;100.00;102363.16;5047298;28;20048;-42
2023/01/23 04:35:01;;;;;;;4.85;1.98;;;;;;;8.54;100.00;102365.09;5056301;28;20524;-44
2023/01/23 04:37:28;;;;;;;4.80;1.60;;;;;;;8.53;100.00;102368.97;5055036;28;20044;-42
2023/01/23 04:39:54;;;;;;;6.68;1.60;;;;;;;8.53;100.00;102380.84;5040072;28;20040;-42
2023/01/23 04:42:21;;;;;;;3.65;1.20;;;;;;;8.54;100.00;102378.91;5046654;28;20155;-44
2023/01/23 04:44:48;;;;;;;2.55;1.40;;;;;;;8.53;100.00;102377.25;5047062;28;20056;-42
2023/01/23 04:47:15;;;;;;;3.42;1.02;;;;;;;8.53;100.00;102375.31;5048969;28;20059;-43
2023/01/23 04:49:42;;;;;;;2.25;0.95;;;;;;;8.54;100.00;102378.91;5046945;28;20067;-42
2023/01/23 04:52:08;;;;;;;2.72;1.30;;;;;;;8.52;100.00;102379.19;5047022;28;20045;-42
2023/01/23 04:54:35;;;;;;;6.53;1.95;;;;;;;8.53;100.00;102382.75;5047115;28;20592;-43
2023/01/23 04:57:03;;;;;;;3.20;1.15;;;;;;;8.52;100.00;102381.94;5046959;28;20512;-43
2023/01/23 04:59:30;;;;;;;3.60;1.77;;;;;;;8.52;100.00;102386.66;5047133;28;20044;-42
2023/01/23 05:01:57;;;;;;;7.57;1.42;;;;;;;8.51;100.00;102383.06;5047030;28;20071;-42
2023/01/23 05:04:23;;;;;;;6.30;1.35;;;;;;;8.50;100.00;102392.44;5046866;28;20055;-42
2023/01/23 05:06:50;;;;;;;8.13;1.20;;;;;;;8.50;100.00;102397.13;5047975;28;20045;-45
2023/01/23 05:09:17;;;;;;;5.50;1.45;;;;;;;8.49;100.00;102401.03;5047960;28;20052;-42
2023/01/23 05:11:43;;;;;;;6.82;1.25;;;;;;;8.49;100.00;102401.88;5044519;28;20054;-42
2023/01/23 05:14:11;;;;;;;5.93;1.38;;;;;;;8.50;100.00;102403.50;5046463;28;20124;-49
2023/01/23 05:16:37;;;;;;;8.90;1.40;;;;;;;8.50;100.00;102408.19;5046990;28;20048;-42
2023/01/23 05:19:04;;;;;;;5.82;1.17;;;;;;;8.49;100.00;102414.84;5047070;28;20059;-42
2023/01/23 05:21:31;;;;;;;8.20;1.90;;;;;;;8.50;100.00;102424.75;5047421;28;20041;-42
2023/01/23 05:23:57;;;;;;;3.33;1.45;;;;;;;8.50;100.00;102424.75;5046354;28;20053;-49
2023/01/23 05:26:24;;;;;;;11.75;2.58;;;;;;;8.50;100.00;102431.09;5047016;28;20090;-43
2023/01/23 05:28:51;;;;;;;4.90;1.48;;;;;;;8.50;100.00;102427.50;5046629;28;20151;-43
2023/01/23 05:31:17;;;;;;;9.25;2.60;;;;;;;8.50;100.00;102431.09;5047106;28;20041;-42
2023/01/23 05:33:44;;;;;;;5.07;1.60;;;;;;;8.51;100.00;102443.78;5046931;28;20854;-42
2023/01/23 05:36:11;;;;;;;4.35;1.45;;;;;;;8.51;100.00;102443.78;5046142;28;20107;-43
2023/01/23 05:38:39;;;;;;;4.55;1.58;;;;;;;8.52;100.00;102444.63;5057575;28;20052;-43
2023/01/23 05:41:05;;;;;;;5.28;2.00;;;;;;;8.51;100.00;102442.97;5047411;28;20449;-42
2023/01/23 05:43:32;;;;;;;7.07;1.63;;;;;;;8.51;100.00;102443.78;5033989;28;20049;-45
2023/01/23 05:46:00;;;;;;;6.55;1.52;;;;;;;8.50;100.00;102438.53;5037866;28;20051;-43
2023/01/23 05:48:27;;;;;;;7.75;2.38;;;;;;;8.51;100.00;102434.69;5046778;28;20056;-42
2023/01/23 05:50:54;;;;;;;5.57;1.30;;;;;;;8.49;100.00;102418.44;5046826;28;20570;-48
2023/01/23 05:53:21;;;;;;;3.92;1.33;;;;;;;8.49;100.00;102431.41;5048497;28;20048;-48
2023/01/23 05:55:47;;;;;;;8.63;1.80;;;;;;;8.47;100.00;102415.09;5050653;28;20068;-42
2023/01/23 05:58:14;;;;;;;7.72;3.65;;;;;;;8.48;100.00;102426.97;5050158;28;20057;-43
2023/01/23 06:00:41;;;;;;;5.63;1.80;;;;;;;8.47;100.00;102419.84;5050139;28;20114;-42
2023/01/23 06:03:08;;;;;;;6.53;1.60;;;;;;;8.46;100.00;102421.75;5051075;28;20049;-43
2023/01/23 06:05:34;;;;;;;5.63;1.23;;;;;;;8.46;100.00;102412.66;5050260;28;20041;-42
2023/01/23 06:08:01;;;;;;;4.78;1.60;;;;;;;8.45;100.00;102406.31;5052507;28;20490;-46
2023/01/23 06:10:28;;;;;;;12.48;1.95;;;;;;;8.46;100.00;102412.66;5050612;28;20589;-42
2023/01/23 06:12:55;;;;;;;8.52;1.63;;;;;;;8.46;100.00;102404.38;5050572;28;20049;-42
2023/01/23 06:15:21;;;;;;;7.95;1.50;;;;;;;8.47;100.00;102403.28;5050021;28;20044;-42
2023/01/23 06:17:48;;;;;;;5.22;2.00;;;;;;;8.46;100.00;102404.38;5049881;28;20047;-42
2023/01/23 06:20:15;;;;;;;4.75;1.80;;;;;;;8.46;100.00;102404.38;5049686;28;20041;-41
2023/01/23 06:22:41;;;;;;;8.75;1.83;;;;;;;8.45;100.00;102400.78;5049403;28;20171;-42
2023/01/23 06:25:09;;;;;;;15.52;2.63;;;;;;;8.45;100.00;102395.25;5049984;28;20068;-42
2023/01/23 06:27:35;;;;;;;4.93;1.88;;;;;;;8.46;100.00;102398.84;5050173;28;20041;-47
2023/01/23 06:30:02;;;;;;;3.35;1.63;;;;;;;8.46;100.00;102402.44;5049667;28;20079;-42
2023/01/23 06:32:29;;;;;;;9.15;1.58;;;;;;;8.47;100.00;102393.03;5049873;28;20049;-42
2023/01/23 06:34:56;;;;;;;4.93;1.80;;;;;;;8.47;100.00;102392.22;5049382;28;20051;-43
2023/01/23 06:37:23;;;;;;;1.75;1.42;;;;;;;8.48;100.00;102393.84;5056325;28;20075;-42
2023/01/23 06:39:50;;;;;;;3.65;1.40;;;;;;;8.48;100.00;102393.84;5051449;28;20534;-44
2023/01/23 06:42:17;;;;;;;6.78;2.03;;;;;;;8.47;100.00;102381.19;5049741;28;20048;-42
2023/01/23 06:44:43;;;;;;;3.92;1.40;;;;;;;8.47;100.00;102375.66;5049484;28;20037;-46
2023/01/23 06:47:10;;;;;;;3.17;1.17;;;;;;;8.47;100.00;102382.00;5049519;28;20056;-41
2023/01/23 06:49:37;;;;;;;4.65;0.90;;;;;;;8.48;100.00;102383.66;5049168;28;20045;-41
2023/01/23 06:52:04;;;;;;;3.97;1.08;;;;;;;8.47;100.00;102392.22;5049648;28;20056;-42
2023/01/23 06:54:31;;;;;;;1.83;1.25;;;;;;;8.47;100.00;102398.56;5047187;28;20045;-41
2023/01/23 06:56:57;;;;;;;1.83;0.68;;;;;;;8.46;100.00;102413.47;5047911;28;20041;-44
2023/01/23 06:59:24;;;;;;;2.28;0.80;;;;;;;8.47;100.00;102417.06;5054565;28;20064;-43
2023/01/23 07:01:51;;;;;;;1.13;0.80;;;;;;;8.46;100.00;102423.69;5048955;28;20507;-44
2023/01/23 07:04:17;;;;;;;2.08;1.08;;;;;;;8.47;100.00;102428.13;5048698;28;20037;-43
2023/01/23 07:06:44;;;;;;;2.60;1.10;;;;;;;8.47;100.00;102434.44;5029943;28;20457;-41
2023/01/23 07:09:11;;;;;;;3.72;1.08;;;;;;;8.48;100.00;102438.03;5051297;28;20037;-42
2023/01/23 07:11:38;;;;;;;2.63;0.90;;;;;;;8.47;100.00;102441.91;5048927;28;20502;-48
2023/01/23 07:14:05;;;;;;;4.95;1.58;;;;;;;8.48;100.00;102451.81;5048843;28;20052;-41
2023/01/23 07:16:33;;;;;;;3.53;1.10;;;;;;;8.47;100.00;102444.66;5048479;28;20110;-42
2023/01/23 07:19:02;;;;;;;1.92;0.90;;;;;;;8.48;100.00;102443.53;5048304;28;20417;-46
2023/01/23 07:21:28;;;;;;;2.08;0.95;;;;;;;8.49;100.00;102450.72;5048772;28;20075;-41
2023/01/23 07:23:55;;;;;;;2.90;0.95;;;;;;;8.49;100.00;102450.72;5048329;28;20509;-41
2023/01/23 07:26:22;;;;;;;2.22;1.20;;;;;;;8.48;100.00;102446.31;5048604;28;20055;-41
2023/01/23 07:28:49;;;;;;;3.17;1.00;;;;;;;8.49;100.00;102454.31;5048232;28;20072;-48
2023/01/23 07:31:15;;;;;;;2.83;1.38;;;;;;;8.49;100.00;102464.53;5030564;28;20422;-41
2023/01/23 07:33:42;;;;;;;4.50;1.25;;;;;;;8.50;100.00;102466.97;5048236;28;20060;-41
2023/01/23 07:36:09;;;;;;;2.30;1.02;;;;;;;8.49;100.00;102470.88;5046070;28;20380;-41
2023/01/23 07:38:36;;;;;;;3.55;0.90;;;;;;;8.50;100.00;102485.47;5051948;28;20045;-41
2023/01/23 07:41:02;;;;;;;4.18;1.30;;;;;;;8.49;100.00;102481.09;5047777;28;20490;-41
2023/01/23 07:43:29;;;;;;;2.40;0.88;;;;;;;8.49;100.00;102486.59;5044103;28;20091;-42
2023/01/23 07:45:59;;;;;;;3.25;1.10;;;;;;;8.48;100.00;102488.53;5039477;28;20045;-47
2023/01/23 07:48:28;;;;;;;1.50;1.10;;;;;;;8.47;100.00;102483.31;5047908;28;20051;-47
2023/01/23 07:50:54;;;;;;;4.75;1.42;;;;;;;8.45;100.00;102477.25;5047767;28;20139;-43
2023/01/23 07:53:21;;;;;;;2.42;1.75;;;;;;;8.43;100.00;102471.19;5047739;28;20396;-42
2023/01/23 07:55:48;;;;;;;4.47;1.60;;;;;;;8.41;100.00;102481.69;5047511;28;20407;-41
2023/01/23 07:58:14;;;;;;;3.97;1.88;;;;;;;8.37;100.00;102484.19;5046928;28;20411;-41
2023/01/23 08:00:41;;;;;;;2.60;1.33;;;;;;;8.36;100.00;102492.78;5047215;28;20053;-42
2023/01/23 08:03:08;;;;;;;3.13;2.55;;;;;;;8.34;100.00;102498.56;5047238;28;20124;-42
2023/01/23 08:05:34;;;;;;;2.70;1.35;;;;;;;8.33;100.00;102504.41;5048701;28;20395;-41
2023/01/23 08:08:02;;;;;;;7.88;2.78;;;;;;;8.30;100.00;102502.19;5044977;28;20048;-41
2023/01/23 08:10:39;;;;;;;2.95;1.70;;;;;;;8.27;100.00;102511.88;5047775;28;20049;-41
2023/01/23 08:13:06;;;;;;;9.57;1.88;;;;;;;8.26;100.00;102525.94;5048145;28;20083;-41
2023/01/23 08:15:33;;;;;;;9.52;2.90;;;;;;;8.25;100.00;102519.59;5044317;28;20124;-41
2023/01/23 08:17:59;;;;;;;17.52;3.72;;;;;;;8.23;100.00;102527.34;5047528;28;20125;-42
2023/01/23 08:20:26;;;;;;;6.95;1.88;;;;;;;8.22;100.00;102527.63;5041129;28;20406;-42
2023/01/23 08:22:53;;;;;;;5.45;1.60;;;;;;;8.20;100.00;102538.94;5046551;28;20148;-41
2023/01/23 08:25:19;;;;;;;4.80;1.83;;;;;;;8.20;100.00;102538.94;5053044;28;20064;-42
2023/01/23 08:27:46;;;;;;;8.73;1.60;;;;;;;8.20;100.00;102540.88;5054547;28;20052;-42
2023/01/23 08:30:13;;;;;;;8.15;2.65;;;;;;;8.18;100.00;102543.09;5053116;28;20139;-46
2023/01/23 08:32:40;;;;;;;2.55;1.63;;;;;;;8.18;100.00;102554.94;5048356;28;20045;-41
2023/01/23 08:35:07;;;;;;;7.65;2.13;;;;;;;8.17;100.00;102547.78;5048638;28;20045;-46
2023/01/23 08:37:33;;;;;;;6.50;2.50;;;;;;;8.19;100.00;102541.97;5056971;28;20066;-43
2023/01/23 08:40:02;;;;;;;4.93;2.30;;;;;;;8.20;100.00;102538.13;5055118;28;20079;-42
2023/01/23 08:42:29;;;;;;;6.28;2.55;;;;;;;8.21;100.00;102548.84;5049160;28;20147;-42
2023/01/23 08:44:55;;;;;;;6.15;3.15;;;;;;;8.23;100.00;102554.09;5049079;28;20052;-41
2023/01/23 08:47:22;;;;;;;4.45;2.50;;;;;;;8.24;100.00;102552.97;5048316;28;20131;-45
2023/01/23 08:49:49;;;;;;;7.15;2.75;;;;;;;8.26;100.00;102554.34;5048968;28;20044;-43
2023/01/23 08:52:16;;;;;;;6.53;4.03;;;;;;;8.28;100.00;102551.34;5048544;28;20052;-42
2023/01/23 08:54:42;;;;;;;5.22;4.38;;;;;;;8.30;100.00;102560.16;5048326;28;20095;-43
2023/01/23 08:57:09;;;;;;;6.63;4.63;;;;;;;8.31;100.00;102567.34;5048443;28;20147;-44
2023/01/23 08:59:36;;;;;;;8.68;5.05;;;;;;;8.33;100.00;102556.81;5048794;28;20044;-42
2023/01/23 09:02:02;;;;;;;4.85;4.35;;;;;;;8.35;100.00;102560.13;5039904;28;20053;-42
2023/01/23 09:04:29;;;;;;;7.78;3.78;;;;;;;8.37;100.00;102568.94;5046035;28;20116;-42
2023/01/23 09:06:56;;;;;;;8.60;4.03;;;;;;;8.39;100.00;102569.50;5043951;28;20040;-42
2023/01/23 09:09:23;;;;;;;4.13;3.00;;;;;;;8.40;100.00;102573.88;5052751;28;20394;-42
2023/01/23 09:11:49;;;;;;;4.10;3.65;;;;;;;8.41;100.00;102565.34;5055132;28;20057;-43
2023/01/23 09:14:16;;;;;;;8.25;3.15;;;;;;;8.43;100.00;102568.63;5051612;28;20049;-42
2023/01/23 09:16:43;;;;;;;6.63;2.30;;;;;;;8.45;100.00;102571.09;5048259;28;20045;-42
2023/01/23 09:19:11;;;;;;;5.88;2.92;;;;;;;8.46;100.00;102562.53;5048212;28;20045;-41
2023/01/23 09:21:38;;;;;;;4.72;2.42;;;;;;;8.49;100.00;102566.66;5048055;28;20049;-42
2023/01/23 09:24:05;;;;;;;4.95;2.75;;;;;;;8.51;100.00;102558.91;5048501;28;20045;-49
2023/01/23 09:26:31;;;;;;;8.10;2.80;;;;;;;8.54;100.00;102558.34;5048379;28;20045;-41
2023/01/23 09:28:58;;;;;;;5.13;2.75;;;;;;;8.55;100.00;102571.03;5051778;28;20045;-49
2023/01/23 09:31:25;;;;;;;6.13;2.30;;;;;;;8.56;100.00;102567.97;5052571;28;20073;-41
2023/01/23 09:33:52;;;;;;;6.35;2.80;;;;;;;8.58;100.00;102570.44;5052504;28;20049;-42
2023/01/23 09:36:18;;;;;;;8.13;3.60;;;;;;;8.61;100.00;102574.56;5051578;28;20052;-42
2023/01/23 09:38:59;;;;;;;4.63;2.80;;;;;;;8.62;100.00;102567.94;5044219;28;20045;-42
2023/01/23 09:41:27;;;;;;;7.93;2.80;;;;;;;8.65;100.00;102570.13;5051849;28;20581;-42
2023/01/23 09:44:18;;;;;;;6.20;3.30;;;;;;;8.67;100.00;102574.25;5051858;28;20083;-42
2023/01/23 09:46:54;;;;;;;5.00;2.50;;;;;;;8.71;100.00;102578.06;5051924;28;20033;-42
2023/01/23 09:49:36;;;;;;;5.43;2.28;;;;;;;8.74;100.00;102582.19;5051779;28;20056;-42
2023/01/23 09:52:10;;;;;;;4.60;2.20;;;;;;;8.77;100.00;102585.19;5051741;28;20513;-44
2023/01/23 09:54:51;;;;;;;2.50;2.03;;;;;;;8.80;100.00;102584.63;5052072;28;20037;-42
2023/01/23 09:57:40;;;;;;;5.30;2.67;;;;;;;8.83;100.00;102594.28;5033759;28;20406;-42
2023/01/23 10:00:39;;;;;;;9.38;3.55;;;;;;;8.87;100.00;102584.31;5033505;28;20537;-43
2023/01/23 10:03:14;;;;;;;2.38;2.17;;;;;;;8.89;100.00;102582.91;4994843;28;20064;-42
2023/01/23 10:05:53;;;;;;;5.45;3.03;;;;;;;8.93;100.00;102586.72;5051831;28;20056;-41
2023/01/23 10:08:38;;;;;;;6.20;2.47;;;;;;;8.98;100.00;102586.69;5051957;28;20437;-42
2023/01/23 10:11:19;;;;;;;4.65;1.80;;;;;;;9.02;100.00;102585.00;5051419;28;20048;-42
2023/01/23 10:14:31;;;;;;;2.55;2.08;;;;;;;9.05;100.00;102592.69;5049730;28;20056;-41
2023/01/23 10:17:13;;;;;;;3.17;2.53;;;;;;;9.08;100.00;102597.63;5033262;28;20452;-43
2023/01/23 10:19:47;;;;;;;;;;;;;;;9.11;100.00;102590.69;5051626;28;20500;-41
2023/01/23 10:22:23;;;;;;;6.25;2.78;;;;;;;9.14;100.00;102590.13;5050737;28;20224;-43
2023/01/23 10:24:55;;;;;;;5.45;2.60;;;;;;;9.18;100.00;102597.56;5050672;28;20063;-44
2023/01/23 10:27:43;;;;;;;7.13;2.72;;;;;;;9.22;100.00;102597.78;5051752;28;20065;-42
2023/01/23 10:30:17;;;;;;;5.45;2.85;;;;;;;9.27;100.00;102610.72;5050542;28;20036;-43
2023/01/23 10:33:15;;;;;;;16.85;4.32;;;;;;;9.32;100.00;102596.88;5033752;28;20041;-46
2023/01/23 10:35:50;;;;;;;5.10;2.10;;;;;;;9.37;100.00;102607.88;5030809;28;20051;-42
2023/01/23 10:38:46;;;;;;;7.72;2.47;;;;;;;9.39;100.00;102619.47;5052983;28;20072;-44
2023/01/23 10:41:18;;;;;;;3.17;1.77;;;;;;;9.42;100.00;102624.41;5029358;28;20146;-42
2023/01/23 10:43:51;;;;;;;5.00;2.13;;;;;;;9.45;100.00;102610.81;5050956;28;20044;-42
2023/01/23 10:46:27;;;;;;;3.72;2.25;;;;;;;9.49;100.00;102614.66;5050942;28;20459;-42
2023/01/23 10:48:55;;;;;;;4.38;2.40;;;;;;;9.54;100.00;102613.78;5051423;28;20041;-44
2023/01/23 10:51:30;;;;;;;6.68;2.15;;;;;;;9.56;100.00;102614.28;5031983;28;20044;-44
2023/01/23 10:54:25;;;;;;;4.00;2.22;;;;;;;9.58;100.00;102623.94;5050375;28;20587;-43
2023/01/23 10:57:19;;;;;;;4.22;2.63;;;;;;;9.60;100.00;102616.19;5042957;28;20144;-45
2023/01/23 11:00:03;;;;;;;3.13;2.40;;;;;;;9.64;100.00;102619.19;5050567;28;20049;-43
2023/01/23 11:02:32;;;;;;;5.07;2.55;;;;;;;9.68;100.00;102623.03;5044384;28;20535;-44
2023/01/23 11:05:01;;;;;;;3.92;2.22;;;;;;;9.72;100.00;102624.06;5050406;28;20479;-42
2023/01/23 11:07:30;;;;;;;4.65;2.90;;;;;;;9.75;100.00;102612.44;5035003;28;20037;-43
2023/01/23 11:10:22;;;;;;;4.18;2.50;;;;;;;9.81;100.00;102608.50;5049959;28;20131;-43
2023/01/23 11:12:53;;;;;;;4.80;2.75;;;;;;;9.87;100.00;102604.56;5039350;28;20048;-45
2023/01/23 11:15:21;;;;;;;5.10;4.18;;;;;;;9.90;100.00;102603.94;5050237;28;20132;-48
2023/01/23 11:17:50;;;;;;;5.22;3.13;;;;;;;9.92;100.00;102600.91;5050083;28;20047;-42
2023/01/23 11:20:32;;;;;;;7.28;3.25;;;;;;;9.94;100.00;102598.66;5049860;28;20045;-43
2023/01/23 11:23:09;;;;;;;6.30;3.30;;;;;;;9.97;100.00;102612.72;5050271;28;20060;-42
2023/01/23 11:25:41;;;;;;;8.95;3.72;;;;;;;10.00;100.00;102603.84;5049801;28;20432;-44
2023/01/23 11:28:41;;;;;;;7.45;3.00;;;;;;;10.01;100.00;102608.22;5013887;28;20076;-42
2023/01/23 11:31:13;;;;;;;8.60;4.10;;;;;;;10.01;100.00;102605.47;5035813;28;20944;-49
2023/01/23 11:33:50;;;;;;;6.93;3.67;;;;;;;10.03;100.00;102608.78;5049981;28;20037;-43
2023/01/23 11:36:17;;;;;;;7.18;4.15;;;;;;;10.03;100.00;102608.78;5050203;28;20131;-43
2023/01/23 11:38:49;;;;;;;6.38;3.75;;;;;;;10.02;100.00;102600.75;5059482;28;20497;-44
2023/01/23 11:41:23;;;;;;;11.32;4.50;;;;;;;10.01;100.00;102599.94;5049479;28;20061;-42
2023/01/23 11:43:51;;;;;;;6.43;4.03;;;;;;;10.02;100.00;102606.28;5049721;28;20140;-45